Time;durP1;ratioP1;P1;durP2;ratioP2;P2;SDS_P1;SDS_P2;PMS_P1;PMS_P2;Temp;Humidity;BMP_temperature;BMP_pressure;BME280_temperature;BME280_humidity;BME280_pressure;Samples;Min_cycle;Max_cycle;Signal;HPM_P1;HPM_P2
2022/05/04 00:01:23;;;;;;;2.03;1.92;;;14.10;75.00;;;;;;5055470;28;20571;-64
2022/05/04 00:03:48;;;;;;;2.58;2.00;;;14.10;74.70;;;;;;5051967;28;20039;-64
2022/05/04 00:06:14;;;;;;;2.13;1.92;;;14.10;74.70;;;;;;5055645;28;20060;-64
2022/05/04 00:08:40;;;;;;;2.13;2.03;;;14.10;74.70;;;;;;5058138;28;20497;-64
2022/05/04 00:11:06;;;;;;;3.08;2.15;;;14.10;74.50;;;;;;5050156;28;20029;-64
2022/05/04 00:13:32;;;;;;;2.40;2.20;;;14.10;74.50;;;;;;5055533;28;20066;-63
2022/05/04 00:16:01;;;;;;;2.08;1.98;;;14.00;74.30;;;;;;5052798;28;20119;-65
2022/05/04 00:18:27;;;;;;;2.20;1.90;;;14.00;74.20;;;;;;5056341;28;20083;-63
2022/05/04 00:20:53;;;;;;;3.22;2.17;;;14.00;74.30;;;;;;5052225;28;20502;-64
2022/05/04 00:23:18;;;;;;;4.03;1.98;;;13.90;74.30;;;;;;5053768;28;20032;-64
2022/05/04 00:25:44;;;;;;;2.25;2.05;;;13.90;74.20;;;;;;5053521;28;20037;-63
2022/05/04 00:28:10;;;;;;;2.85;2.00;;;13.90;74.20;;;;;;5055457;28;20133;-64
2022/05/04 00:30:35;;;;;;;3.35;2.20;;;13.80;74.20;;;;;;5052680;28;20112;-64
2022/05/04 00:33:01;;;;;;;3.40;2.08;;;13.80;74.40;;;;;;5069444;28;20599;-64
2022/05/04 00:35:27;;;;;;;2.60;2.00;;;13.70;74.60;;;;;;5054024;28;20025;-64
2022/05/04 00:37:52;;;;;;;1.98;1.88;;;13.70;74.70;;;;;;5053958;28;20033;-64
2022/05/04 00:40:18;;;;;;;2.08;1.80;;;13.70;74.60;;;;;;5055108;28;20455;-64
2022/05/04 00:42:44;;;;;;;2.67;2.10;;;13.70;74.40;;;;;;5052828;28;20041;-63
2022/05/04 00:45:10;;;;;;;2.30;2.10;;;13.70;74.40;;;;;;5051904;28;20537;-64
2022/05/04 00:47:35;;;;;;;1.83;1.73;;;13.60;74.40;;;;;;5055652;28;20028;-65
2022/05/04 00:50:07;;;;;;;2.58;2.13;;;13.60;74.40;;;;;;5054636;28;20054;-63
2022/05/04 00:52:34;;;;;;;3.33;2.10;;;13.60;74.60;;;;;;5054276;28;20435;-64
2022/05/04 00:55:01;;;;;;;2.30;2.10;;;13.60;74.40;;;;;;5052876;28;20765;-64
2022/05/04 01:00:13;;;;;;;2.10;2.00;;;13.60;74.50;;;;;;5058076;28;20078;-64
2022/05/04 01:02:40;;;;;;;2.10;1.98;;;13.60;74.20;;;;;;5057180;28;20053;-64
2022/05/04 01:05:10;;;;;;;2.35;2.17;;;13.50;74.40;;;;;;5055700;28;20090;-64
2022/05/04 01:07:37;;;;;;;3.50;2.30;;;13.50;74.20;;;;;;5057104;28;20051;-64
2022/05/04 01:10:04;;;;;;;2.13;2.03;;;13.50;74.00;;;;;;5058879;28;20123;-65
2022/05/04 01:12:31;;;;;;;2.40;2.20;;;13.50;74.00;;;;;;5056334;28;20039;-64
2022/05/04 01:14:57;;;;;;;2.45;2.25;;;13.50;73.90;;;;;;5057197;28;20065;-64
2022/05/04 01:17:23;;;;;;;2.75;2.33;;;13.40;74.00;;;;;;5057941;28;20448;-64
2022/05/04 01:19:48;;;;;;;2.65;2.45;;;13.30;74.30;;;;;;5055061;28;20527;-64
2022/05/04 01:22:14;;;;;;;2.53;2.33;;;13.20;74.50;;;;;;5060750;28;20029;-64
2022/05/04 01:24:39;;;;;;;2.35;2.15;;;13.10;74.60;;;;;;5058057;28;20082;-64
2022/05/04 01:27:11;;;;;;;2.67;2.47;;;13.00;74.70;;;;;;5056912;28;20462;-63
2022/05/04 01:29:36;;;;;;;3.33;2.90;;;12.90;75.00;;;;;;5058034;28;20452;-65
2022/05/04 01:32:02;;;;;;;2.85;2.65;;;12.80;74.80;;;;;;5058110;28;20036;-64
2022/05/04 01:34:28;;;;;;;2.80;2.60;;;12.80;75.00;;;;;;5054293;28;20248;-63
2022/05/04 01:36:54;;;;;;;3.03;2.78;;;12.70;75.40;;;;;;5055406;28;20581;-64
2022/05/04 01:39:19;;;;;;;2.95;2.75;;;12.60;75.60;;;;;;5057330;28;20032;-64
2022/05/04 01:42:03;;;;;;;3.35;3.05;;;12.60;75.80;;;;;;5055711;28;20036;-64
2022/05/04 01:44:33;;;;;;;2.58;2.38;;;12.60;75.90;;;;;;5056522;28;20033;-63
2022/05/04 01:46:59;;;;;;;2.55;2.22;;;12.50;76.00;;;;;;5054065;28;20477;-64
2022/05/04 01:49:25;;;;;;;3.25;2.53;;;12.50;75.80;;;;;;5057977;28;20075;-64
2022/05/04 01:51:51;;;;;;;2.78;2.58;;;12.50;75.80;;;;;;5056024;28;20115;-65
2022/05/04 01:54:17;;;;;;;3.00;2.70;;;12.50;75.80;;;;;;5056135;28;20061;-64
2022/05/04 01:56:42;;;;;;;3.65;2.97;;;12.50;75.60;;;;;;5056171;28;20116;-64
2022/05/04 01:59:08;;;;;;;3.00;2.70;;;12.50;75.50;;;;;;5055427;28;20040;-63
2022/05/04 02:01:34;;;;;;;3.47;3.17;;;12.50;75.60;;;;;;5056097;28;20405;-64
2022/05/04 02:04:00;;;;;;;3.53;3.05;;;12.50;75.80;;;;;;5054848;28;20484;-64
2022/05/04 02:06:27;;;;;;;3.00;2.70;;;12.50;75.80;;;;;;5055421;28;20021;-63
2022/05/04 02:08:52;;;;;;;2.88;2.67;;;12.50;75.80;;;;;;5060830;28;20033;-62
2022/05/04 02:11:18;;;;;;;3.20;2.90;;;12.50;75.80;;;;;;5056632;28;20032;-64
2022/05/04 02:13:44;;;;;;;3.17;2.70;;;12.50;75.70;;;;;;5056338;28;20029;-63
2022/05/04 02:16:10;;;;;;;3.00;2.78;;;12.50;75.80;;;;;;5055307;28;20322;-64
2022/05/04 02:18:35;;;;;;;3.30;3.03;;;12.50;76.00;;;;;;5056732;28;20341;-64
2022/05/04 02:21:02;;;;;;;3.13;2.92;;;12.50;76.00;;;;;;5055770;28;20060;-64
2022/05/04 02:23:28;;;;;;;3.10;2.78;;;12.50;76.10;;;;;;5055085;28;20575;-64
2022/05/04 02:25:53;;;;;;;3.28;3.03;;;12.50;76.20;;;;;;5055287;28;20033;-64
2022/05/04 02:28:19;;;;;;;3.97;2.72;;;12.50;76.20;;;;;;5057096;28;20506;-64
2022/05/04 02:30:45;;;;;;;3.58;3.08;;;12.50;76.10;;;;;;5055130;28;20616;-64
2022/05/04 02:33:13;;;;;;;3.83;2.97;;;12.50;76.10;;;;;;5056621;28;20108;-64
2022/05/04 02:38:22;;;;;;;3.72;3.35;;;12.50;75.80;;;;;;5054440;28;20538;-61
2022/05/04 02:40:48;;;;;;;3.47;3.22;;;12.50;75.70;;;;;;5055716;28;20041;-64
2022/05/04 02:43:14;;;;;;;3.33;3.00;;;12.50;75.90;;;;;;5055726;28;20040;-64
2022/05/04 02:45:40;;;;;;;3.42;3.13;;;12.40;75.70;;;;;;5054231;28;20135;-64
2022/05/04 02:48:06;;;;;;;2.88;2.67;;;12.40;75.70;;;;;;5053083;28;20035;-64
2022/05/04 02:50:32;;;;;;;3.38;3.10;;;12.40;76.00;;;;;;5055891;28;20044;-64
2022/05/04 02:52:58;;;;;;;3.20;3.00;;;12.30;76.30;;;;;;5053648;28;20051;-64
2022/05/04 02:55:23;;;;;;;4.97;3.25;;;12.30;76.60;;;;;;5055049;28;20059;-64
2022/05/04 02:57:49;;;;;;;3.67;3.33;;;12.30;76.60;;;;;;5053508;28;20441;-64
2022/05/04 03:00:15;;;;;;;4.05;2.90;;;12.30;76.60;;;;;;5054030;28;20044;-64
2022/05/04 03:02:41;;;;;;;3.55;3.25;;;12.30;76.60;;;;;;5055028;28;20107;-64
2022/05/04 03:05:08;;;;;;;4.00;3.60;;;12.30;76.50;;;;;;5054160;28;20033;-64
2022/05/04 03:07:34;;;;;;;4.32;3.90;;;12.20;76.60;;;;;;5054588;28;20032;-64
2022/05/04 03:10:00;;;;;;;4.80;4.28;;;12.20;76.60;;;;;;5056037;28;20174;-64
2022/05/04 03:12:27;;;;;;;4.28;3.92;;;12.20;76.80;;;;;;5056015;28;20033;-64
2022/05/04 03:14:53;;;;;;;3.95;3.55;;;12.10;77.00;;;;;;5055324;28;20516;-62
2022/05/04 03:17:19;;;;;;;3.95;3.58;;;12.10;77.00;;;;;;5056167;28;20036;-65
2022/05/04 03:19:45;;;;;;;3.88;3.58;;;12.00;77.20;;;;;;5056366;28;20407;-65
2022/05/04 03:22:11;;;;;;;3.80;3.47;;;12.00;77.50;;;;;;5053912;28;20122;-64
2022/05/04 03:24:38;;;;;;;4.22;3.83;;;12.00;77.60;;;;;;5053549;28;20877;-64
2022/05/04 03:27:04;;;;;;;4.10;3.80;;;12.00;77.40;;;;;;5056680;28;20091;-64
2022/05/04 03:29:30;;;;;;;3.80;3.50;;;12.00;77.30;;;;;;5054675;28;20726;-64
2022/05/04 03:31:56;;;;;;;4.25;3.85;;;11.90;77.30;;;;;;5052988;28;20036;-65
2022/05/04 03:34:21;;;;;;;4.15;3.78;;;11.90;77.20;;;;;;5056674;28;20041;-64
2022/05/04 03:36:47;;;;;;;4.47;4.07;;;11.90;77.20;;;;;;5053888;28;20111;-63
2022/05/04 03:39:13;;;;;;;4.50;3.97;;;11.90;77.20;;;;;;5057341;28;20115;-64
2022/05/04 03:41:39;;;;;;;4.30;3.90;;;11.80;77.10;;;;;;5056000;28;20690;-62
2022/05/04 03:44:05;;;;;;;6.28;4.13;;;11.80;77.30;;;;;;5056087;28;20086;-64
2022/05/04 03:46:52;;;;;;;4.82;4.22;;;11.80;77.50;;;;;;5055050;28;20436;-64
2022/05/04 03:49:22;;;;;;;4.68;4.28;;;11.80;78.40;;;;;;5054982;28;20082;-64
2022/05/04 03:51:48;;;;;;;5.00;4.60;;;11.80;77.70;;;;;;5053673;28;20494;-64
2022/05/04 03:54:14;;;;;;;5.10;4.60;;;11.80;77.60;;;;;;5053158;28;20029;-64
2022/05/04 03:56:41;;;;;;;5.05;4.55;;;11.70;77.70;;;;;;5052843;28;20044;-64
2022/05/04 03:59:07;;;;;;;4.70;4.30;;;11.70;77.90;;;;;;5055637;28;20072;-64
2022/05/04 04:01:33;;;;;;;4.97;4.45;;;11.70;78.00;;;;;;5052394;28;20037;-65
2022/05/04 04:03:59;;;;;;;5.80;5.20;;;11.70;78.00;;;;;;5053068;28;20053;-64
2022/05/04 04:06:25;;;;;;;4.80;4.40;;;11.70;78.20;;;;;;5054406;28;20116;-64
2022/05/04 04:08:51;;;;;;;4.95;4.40;;;11.60;78.30;;;;;;5059737;28;20035;-64
2022/05/04 04:11:18;;;;;;;4.88;4.45;;;11.60;78.60;;;;;;5055024;28;20029;-64
2022/05/04 04:13:44;;;;;;;4.85;4.30;;;11.60;78.70;;;;;;5054154;28;20029;-64
2022/05/04 04:16:10;;;;;;;4.57;4.18;;;11.60;78.70;;;;;;5053808;28;20048;-64
2022/05/04 04:18:36;;;;;;;5.63;4.78;;;11.60;78.80;;;;;;5053815;28;20031;-66
2022/05/04 04:23:46;;;;;;;5.40;4.70;;;11.60;78.90;;;;;;5053423;28;20035;-66
2022/05/04 04:26:11;;;;;;;4.65;4.15;;;11.70;79.00;;;;;;5052147;28;20079;-64
2022/05/04 04:28:38;;;;;;;5.38;4.88;;;11.70;79.00;;;;;;5054408;28;20039;-65
2022/05/04 04:31:05;;;;;;;6.95;4.97;;;11.70;79.00;;;;;;5057917;28;20051;-64
2022/05/04 04:33:31;;;;;;;5.63;4.57;;;11.70;78.70;;;;;;5056125;28;20056;-64
2022/05/04 04:35:57;;;;;;;6.28;4.88;;;11.70;78.70;;;;;;5058977;28;20497;-64
2022/05/04 04:38:23;;;;;;;6.55;5.85;;;11.80;79.00;;;;;;5058624;28;20090;-64
2022/05/04 04:40:49;;;;;;;8.05;6.15;;;11.70;79.00;;;;;;5060231;28;20418;-64
2022/05/04 04:43:15;;;;;;;9.90;6.65;;;11.80;79.10;;;;;;5058925;28;20523;-64
2022/05/04 04:45:45;;;;;;;9.27;7.25;;;11.80;79.10;;;;;;5058878;28;20044;-64
2022/05/04 04:48:11;;;;;;;8.70;6.45;;;11.80;78.80;;;;;;5060201;28;20037;-66
2022/05/04 04:50:37;;;;;;;12.80;7.47;;;11.90;78.80;;;;;;5059033;28;20517;-65
2022/05/04 04:53:03;;;;;;;10.20;7.25;;;11.90;78.60;;;;;;5057197;28;20040;-66
2022/05/04 04:55:29;;;;;;;8.18;5.88;;;11.90;78.40;;;;;;5059135;28;20032;-66
2022/05/04 04:57:55;;;;;;;7.38;5.38;;;11.90;78.20;;;;;;5061380;28;20028;-66
2022/05/04 05:00:21;;;;;;;5.28;4.78;;;11.90;78.20;;;;;;5057664;28;20045;-66
2022/05/04 05:02:47;;;;;;;4.93;4.35;;;11.90;78.30;;;;;;5055542;28;20032;-66
2022/05/04 05:05:13;;;;;;;8.15;5.07;;;11.90;78.40;;;;;;5059313;28;20037;-66
2022/05/04 05:07:38;;;;;;;6.72;5.05;;;11.90;78.50;;;;;;5059039;28;20405;-64
2022/05/04 05:10:06;;;;;;;6.68;4.97;;;11.90;78.40;;;;;;5057760;28;20084;-64
2022/05/04 05:12:32;;;;;;;5.05;4.55;;;11.80;78.60;;;;;;5059828;28;20093;-64
2022/05/04 05:17:42;;;;;;;6.90;4.80;;;11.80;79.10;;;;;;5059892;28;20087;-64
2022/05/04 05:20:09;;;;;;;7.88;5.07;;;11.80;79.10;;;;;;5059280;28;20102;-64
2022/05/04 05:22:35;;;;;;;7.53;4.97;;;11.80;79.20;;;;;;5059000;28;20107;-63
2022/05/04 05:25:00;;;;;;;6.50;5.07;;;11.80;79.40;;;;;;5059610;28;20514;-63
2022/05/04 05:27:32;;;;;;;6.30;5.53;;;11.90;79.80;;;;;;5060109;28;20078;-64
2022/05/04 05:29:58;;;;;;;7.53;6.72;;;11.90;80.10;;;;;;5057580;28;20045;-65
2022/05/04 05:32:23;;;;;;;8.35;6.82;;;12.00;80.00;;;;;;5059125;28;20028;-64
2022/05/04 05:34:50;;;;;;;15.40;11.15;;;12.00;80.00;;;;;;5059623;28;20124;-65
2022/05/04 05:37:16;;;;;;;13.68;8.50;;;12.00;80.10;;;;;;5059430;28;20127;-64
2022/05/04 05:39:42;;;;;;;8.05;6.50;;;12.10;80.10;;;;;;5055331;28;20033;-64
2022/05/04 05:42:08;;;;;;;9.90;6.78;;;12.20;80.30;;;;;;5056869;28;20033;-64
2022/05/04 05:44:34;;;;;;;11.88;7.25;;;12.30;80.50;;;;;;5058035;28;20447;-64
2022/05/04 05:47:00;;;;;;;9.52;6.88;;;12.30;80.30;;;;;;5058456;28;20525;-63
2022/05/04 05:49:26;;;;;;;7.07;5.57;;;12.40;80.50;;;;;;5060067;28;20059;-63
2022/05/04 05:51:52;;;;;;;7.90;6.18;;;12.50;80.80;;;;;;5058927;28;20025;-65
2022/05/04 05:54:17;;;;;;;7.88;5.63;;;12.60;80.90;;;;;;5058712;28;20501;-66
2022/05/04 05:56:43;;;;;;;10.80;6.50;;;12.70;81.00;;;;;;5056031;28;20489;-67
2022/05/04 05:59:09;;;;;;;9.02;5.85;;;12.80;81.00;;;;;;5058579;28;20036;-64
2022/05/04 06:01:34;;;;;;;12.05;6.72;;;12.80;80.90;;;;;;5058252;28;20040;-64
2022/05/04 06:04:00;;;;;;;8.60;5.70;;;12.90;81.10;;;;;;5057663;28;20061;-64
2022/05/04 06:06:26;;;;;;;6.22;5.57;;;13.00;81.10;;;;;;5059779;28;20039;-64
2022/05/04 06:08:51;;;;;;;9.48;7.30;;;13.10;81.00;;;;;;5058038;28;20567;-63
2022/05/04 06:11:17;;;;;;;10.98;7.32;;;13.20;80.90;;;;;;5058236;28;20052;-64
2022/05/04 06:13:43;;;;;;;7.90;5.97;;;13.30;81.10;;;;;;5056343;28;20387;-65
2022/05/04 06:16:08;;;;;;;7.72;5.97;;;13.40;81.30;;;;;;5056923;28;20044;-64
2022/05/04 06:18:34;;;;;;;7.75;6.15;;;13.50;81.30;;;;;;5059217;28;20499;-63
2022/05/04 06:21:00;;;;;;;6.38;5.60;;;13.50;81.30;;;;;;5057166;28;20033;-64
2022/05/04 06:23:26;;;;;;;6.50;5.13;;;13.60;81.30;;;;;;5059085;28;20767;-65
2022/05/04 06:25:51;;;;;;;6.55;5.13;;;13.70;80.90;;;;;;5059045;28;20463;-64
2022/05/04 06:28:17;;;;;;;7.10;5.25;;;13.80;80.70;;;;;;5057301;28;20044;-64
2022/05/04 06:36:11;;;;;;;7.32;6.38;;;14.00;79.80;;;;;;5056896;28;20036;-64
2022/05/04 06:38:38;;;;;;;7.22;6.45;;;14.00;79.50;;;;;;5057606;28;20036;-63
2022/05/04 06:41:05;;;;;;;9.30;6.13;;;14.10;79.50;;;;;;5056453;28;20398;-64
2022/05/04 06:43:32;;;;;;;8.73;6.38;;;14.10;79.40;;;;;;5061570;28;20098;-65
2022/05/04 06:45:58;;;;;;;8.27;5.95;;;14.20;79.70;;;;;;5057530;28;20104;-65
2022/05/04 06:48:23;;;;;;;7.63;6.72;;;14.20;79.80;;;;;;5057147;28;20824;-64
2022/05/04 06:50:49;;;;;;;9.25;6.43;;;14.30;79.90;;;;;;5055611;28;20497;-62
2022/05/04 06:53:14;;;;;;;8.30;6.55;;;14.40;80.00;;;;;;5057123;28;20047;-65
2022/05/04 06:55:40;;;;;;;7.63;6.65;;;14.40;79.60;;;;;;5054595;28;20494;-64
2022/05/04 06:58:06;;;;;;;7.20;6.50;;;14.50;79.60;;;;;;5057520;28;20217;-63
2022/05/04 07:00:31;;;;;;;6.82;6.13;;;14.60;79.60;;;;;;5061840;28;20036;-61
2022/05/04 07:02:57;;;;;;;8.80;6.70;;;14.60;79.60;;;;;;5057013;28;20040;-64
2022/05/04 07:05:23;;;;;;;7.15;6.32;;;14.70;79.40;;;;;;5062914;28;20036;-65
2022/05/04 07:07:48;;;;;;;6.95;6.13;;;14.80;79.70;;;;;;5062581;28;20129;-64
2022/05/04 07:10:14;;;;;;;8.20;5.90;;;14.80;79.50;;;;;;5058329;28;20032;-65
2022/05/04 07:12:40;;;;;;;6.75;5.13;;;14.90;79.20;;;;;;5054041;28;20068;-65
2022/05/04 07:15:06;;;;;;;6.68;4.95;;;15.00;78.80;;;;;;5054195;28;20402;-66
2022/05/04 07:17:31;;;;;;;9.95;5.03;;;15.10;78.40;;;;;;5057295;28;20033;-65
2022/05/04 07:19:57;;;;;;;6.07;5.00;;;15.20;78.30;;;;;;5057415;28;20087;-65
2022/05/04 07:22:23;;;;;;;6.25;5.38;;;15.30;78.00;;;;;;5055737;28;20029;-66
2022/05/04 07:24:49;;;;;;;7.75;4.90;;;15.40;77.60;;;;;;5056096;28;20288;-65
2022/05/04 07:27:15;;;;;;;5.60;4.97;;;15.50;77.80;;;;;;5055407;28;20047;-66
2022/05/04 07:29:42;;;;;;;5.82;4.57;;;15.60;77.60;;;;;;5056243;28;20037;-65
2022/05/04 07:32:08;;;;;;;4.78;4.38;;;15.70;77.30;;;;;;5053588;28;20532;-65
2022/05/04 07:34:34;;;;;;;6.20;4.40;;;15.80;76.90;;;;;;5055336;28;20041;-65
2022/05/04 07:37:00;;;;;;;4.30;3.70;;;15.90;76.30;;;;;;5056631;28;20036;-65
2022/05/04 07:42:24;;;;;;;3.90;3.58;;;16.10;75.40;;;;;;5055397;28;20043;-65
2022/05/04 07:45:00;;;;;;;4.00;3.53;;;16.20;75.10;;;;;;5055523;28;20506;-65
2022/05/04 07:47:28;;;;;;;5.38;3.53;;;16.20;74.20;;;;;;5055848;28;20048;-65
2022/05/04 07:49:54;;;;;;;3.70;3.35;;;16.30;74.20;;;;;;5056213;28;20048;-66
2022/05/04 07:52:20;;;;;;;3.75;3.45;;;16.30;73.90;;;;;;5056083;28;20086;-66
2022/05/04 07:54:45;;;;;;;4.40;3.78;;;16.40;74.00;;;;;;5055925;28;20036;-65
2022/05/04 07:57:11;;;;;;;4.03;3.63;;;16.50;73.60;;;;;;5055366;28;20033;-65
2022/05/04 07:59:37;;;;;;;3.75;3.40;;;16.50;73.20;;;;;;5057743;28;20612;-65
2022/05/04 08:04:47;;;;;;;6.32;3.42;;;16.70;73.80;;;;;;5055130;28;20046;-65
2022/05/04 08:07:13;;;;;;;4.13;3.72;;;16.80;73.60;;;;;;5056777;28;20032;-65
2022/05/04 08:09:39;;;;;;;5.00;3.90;;;16.80;73.10;;;;;;5059672;28;20032;-66
2022/05/04 08:12:11;;;;;;;4.22;3.92;;;16.90;73.70;;;;;;5054213;28;20071;-65
2022/05/04 08:14:37;;;;;;;4.38;3.97;;;17.00;73.50;;;;;;5057147;28;20120;-66
2022/05/04 08:17:03;;;;;;;5.47;3.83;;;17.00;72.70;;;;;;5058622;28;20040;-66
2022/05/04 08:19:29;;;;;;;5.18;4.18;;;17.10;72.60;;;;;;5058569;28;20082;-66
2022/05/04 08:21:56;;;;;;;4.20;3.90;;;17.20;72.10;;;;;;5058269;28;20098;-66
2022/05/04 08:24:22;;;;;;;4.28;3.88;;;17.20;72.00;;;;;;5054825;28;20107;-65
2022/05/04 08:26:47;;;;;;;4.80;4.40;;;17.30;71.60;;;;;;5056854;28;20473;-66
2022/05/04 08:29:14;;;;;;;4.43;4.03;;;17.40;71.50;;;;;;5056753;28;20047;-66
2022/05/04 08:31:40;;;;;;;4.65;4.20;;;17.40;70.70;;;;;;5057807;28;20040;-66
2022/05/04 08:34:06;;;;;;;4.70;4.30;;;17.50;70.00;;;;;;5056259;28;20032;-66
2022/05/04 08:36:31;;;;;;;5.15;4.65;;;17.50;69.50;;;;;;5056257;28;20032;-66
2022/05/04 08:38:57;;;;;;;4.45;4.05;;;17.60;69.70;;;;;;5055098;28;20021;-64
2022/05/04 08:41:23;;;;;;;4.47;4.03;;;17.60;70.50;;;;;;5057983;28;20598;-66
2022/05/04 08:43:51;;;;;;;4.65;4.20;;;17.70;70.50;;;;;;5055586;28;20503;-66
2022/05/04 08:46:20;;;;;;;4.35;3.95;;;17.70;69.90;;;;;;5070699;28;20147;-66
2022/05/04 08:48:47;;;;;;;4.97;4.50;;;17.80;69.20;;;;;;5055890;28;20098;-66
2022/05/04 08:51:14;;;;;;;4.65;4.25;;;17.90;68.90;;;;;;5057321;28;20405;-66
2022/05/04 08:53:42;;;;;;;5.13;4.63;;;17.90;68.60;;;;;;5056926;28;20033;-66
2022/05/04 08:56:08;;;;;;;4.70;4.30;;;18.00;68.20;;;;;;5056760;28;20539;-65
2022/05/04 08:58:37;;;;;;;4.90;4.50;;;18.00;68.70;;;;;;5058385;28;20037;-66
2022/05/04 09:01:04;;;;;;;4.30;3.97;;;18.10;68.20;;;;;;5056058;28;20421;-64
2022/05/04 09:03:32;;;;;;;4.63;4.10;;;18.10;68.10;;;;;;5057388;28;20040;-65
2022/05/04 09:05:58;;;;;;;4.32;3.97;;;18.10;68.00;;;;;;5058905;28;20036;-66
2022/05/04 09:08:24;;;;;;;4.95;4.10;;;18.20;68.30;;;;;;5056906;28;20039;-65
2022/05/04 09:10:49;;;;;;;4.60;4.20;;;18.20;67.40;;;;;;5054579;28;20040;-66
2022/05/04 09:13:18;;;;;;;5.25;4.65;;;18.30;66.90;;;;;;5055404;28;20517;-66
2022/05/04 09:15:44;;;;;;;5.00;4.55;;;18.30;65.60;;;;;;5053954;28;20112;-64
2022/05/04 09:18:16;;;;;;;5.18;4.70;;;18.30;66.00;;;;;;5056695;28;20120;-66
2022/05/04 09:20:55;;;;;;;4.53;4.13;;;18.40;66.10;;;;;;5061334;28;20033;-66
2022/05/04 09:23:29;;;;;;;4.55;4.10;;;18.40;65.70;;;;;;5058583;28;20044;-66
2022/05/04 09:25:57;;;;;;;3.97;3.65;;;18.40;65.90;;;;;;5060800;28;20032;-67
2022/05/04 09:28:27;;;;;;;4.10;3.70;;;18.50;65.30;;;;;;5059726;28;20028;-66
2022/05/04 09:31:05;;;;;;;5.47;3.85;;;18.50;64.60;;;;;;5059317;28;20037;-66
2022/05/04 09:33:34;;;;;;;4.15;3.75;;;18.50;64.80;;;;;;5056584;28;20028;-66
2022/05/04 09:36:00;;;;;;;4.22;3.83;;;18.60;64.10;;;;;;5060651;28;20105;-66
2022/05/04 09:46:49;;;;;;;4.10;3.70;;;18.80;63.70;;;;;;5058726;28;20611;-66
2022/05/04 09:49:16;;;;;;;4.18;3.78;;;18.90;63.60;;;;;;5059542;28;20043;-66
2022/05/04 09:51:53;;;;;;;3.60;3.30;;;19.00;63.70;;;;;;5059708;28;20057;-66
2022/05/04 09:54:23;;;;;;;4.10;3.80;;;19.10;62.70;;;;;;5058711;28;20028;-66
2022/05/04 09:56:57;;;;;;;3.65;3.35;;;19.20;62.60;;;;;;5060537;28;20524;-66
2022/05/04 09:59:31;;;;;;;3.65;3.35;;;19.20;61.70;;;;;;5064324;28;20029;-66
2022/05/04 10:02:02;;;;;;;3.80;3.50;;;19.40;61.20;;;;;;5059700;28;20063;-67
2022/05/04 10:04:28;;;;;;;3.40;3.20;;;19.40;61.40;;;;;;5058908;28;20124;-66
2022/05/04 10:06:54;;;;;;;3.38;3.08;;;19.50;61.30;;;;;;5060980;28;20581;-66
2022/05/04 10:09:22;;;;;;;3.38;3.08;;;19.60;61.50;;;;;;5060211;28;20082;-66
2022/05/04 10:11:53;;;;;;;3.67;3.38;;;19.70;60.60;;;;;;5057781;28;20029;-66
2022/05/04 10:14:19;;;;;;;3.45;3.15;;;19.80;60.20;;;;;;5058043;28;20122;-65
2022/05/04 10:16:54;;;;;;;2.63;2.33;;;19.80;59.40;;;;;;5059417;28;20028;-66
2022/05/04 10:19:26;;;;;;;4.22;3.55;;;19.90;57.80;;;;;;5058874;28;20056;-67
2022/05/04 10:21:55;;;;;;;2.85;2.65;;;19.90;58.00;;;;;;5061426;28;20044;-67
2022/05/04 10:24:22;;;;;;;4.60;3.35;;;20.00;58.20;;;;;;5059428;28;20066;-65
2022/05/04 10:26:48;;;;;;;3.65;3.35;;;20.00;58.50;;;;;;5057657;28;20071;-66
2022/05/04 10:32:27;;;;;;;3.70;3.40;;;20.20;56.90;;;;;;5058843;28;20114;-66
2022/05/04 10:35:28;;;;;;;3.40;3.20;;;20.20;57.10;;;;;;5059541;28;20020;-66
2022/05/04 10:37:59;;;;;;;3.38;3.03;;;20.30;57.40;;;;;;5059491;28;20192;-66
2022/05/04 10:40:53;;;;;;;3.22;2.80;;;20.40;57.60;;;;;;5060147;28;20028;-66
2022/05/04 10:43:41;;;;;;;2.83;2.63;;;20.40;57.00;;;;;;5060275;28;20036;-66
2022/05/04 10:46:23;;;;;;;4.22;3.60;;;20.50;56.70;;;;;;5058008;28;20033;-66
2022/05/04 10:49:02;;;;;;;8.10;2.50;;;20.50;58.00;;;;;;5060171;28;20497;-66
2022/05/04 10:51:29;;;;;;;2.80;1.73;;;20.40;56.60;;;;;;5060164;28;20074;-67
2022/05/04 10:54:09;;;;;;;3.55;1.73;;;20.30;55.90;;;;;;5059629;28;20036;-65
2022/05/04 10:56:45;;;;;;;1.75;1.20;;;20.20;56.20;;;;;;5058035;28;20029;-66
2022/05/04 10:59:12;;;;;;;2.28;1.25;;;19.90;55.30;;;;;;5059127;28;20029;-66
2022/05/04 11:01:40;;;;;;;1.42;1.33;;;19.80;55.10;;;;;;5058838;28;20402;-66
2022/05/04 11:04:13;;;;;;;1.75;1.23;;;19.60;55.40;;;;;;5058877;28;20556;-65
2022/05/04 11:06:52;;;;;;;1.33;1.20;;;19.50;54.60;;;;;;5057054;28;20017;-66
2022/05/04 11:09:25;;;;;;;1.20;1.10;;;19.50;54.00;;;;;;5057639;28;20029;-66
2022/05/04 11:11:55;;;;;;;1.92;1.60;;;19.40;55.60;;;;;;5056502;28;20082;-64
2022/05/04 11:14:22;;;;;;;2.03;1.77;;;19.40;54.80;;;;;;5057311;28;20075;-66
2022/05/04 11:16:50;;;;;;;1.85;1.75;;;19.40;55.00;;;;;;5057814;28;20036;-66
2022/05/04 11:19:16;;;;;;;2.08;1.88;;;19.30;55.80;;;;;;5056757;28;20036;-66
2022/05/04 11:21:42;;;;;;;2.30;2.00;;;19.30;56.40;;;;;;5057152;28;21048;-66
2022/05/04 11:24:13;;;;;;;2.35;2.15;;;19.30;55.80;;;;;;5056670;28;20060;-66
2022/05/04 11:26:40;;;;;;;5.13;2.25;;;19.40;55.80;;;;;;5058506;28;20021;-66
2022/05/04 11:29:13;;;;;;;3.60;1.30;;;19.50;57.00;;;;;;5058536;28;20039;-66
2022/05/04 11:31:47;;;;;;;1.85;1.10;;;19.50;55.90;;;;;;5062337;28;20051;-66
2022/05/04 11:34:16;;;;;;;2.35;1.20;;;19.60;54.90;;;;;;5055460;28;20051;-66
2022/05/04 11:36:46;;;;;;;1.25;1.00;;;19.60;54.20;;;;;;5057450;28;20029;-66
2022/05/04 11:39:21;;;;;;;1.52;1.30;;;19.50;53.20;;;;;;5056488;28;20032;-66
2022/05/04 11:41:48;;;;;;;2.73;1.10;;;19.40;52.10;;;;;;5058814;28;22965;-66
2022/05/04 11:44:15;;;;;;;0.93;0.90;;;19.30;53.20;;;;;;5055621;28;20037;-66
2022/05/04 11:46:47;;;;;;;1.05;0.90;;;19.20;53.30;;;;;;5060229;28;20033;-66
2022/05/04 11:49:13;;;;;;;1.58;1.48;;;19.00;53.90;;;;;;5057959;28;20536;-66
2022/05/04 11:51:39;;;;;;;1.85;1.02;;;18.90;54.80;;;;;;5056118;28;20379;-66
2022/05/04 11:54:05;;;;;;;1.15;1.08;;;18.80;54.90;;;;;;5056316;28;20032;-66
2022/05/04 11:56:32;;;;;;;1.85;0.95;;;18.60;55.00;;;;;;5058202;28;20035;-66
2022/05/04 11:58:58;;;;;;;2.40;1.30;;;18.50;55.70;;;;;;5057903;28;20466;-66
2022/05/04 12:01:24;;;;;;;1.40;1.30;;;18.30;56.20;;;;;;5057888;28;20045;-66
2022/05/04 12:03:50;;;;;;;1.67;1.48;;;18.20;57.10;;;;;;5057950;28;20035;-66
2022/05/04 12:06:17;;;;;;;1.58;1.30;;;18.10;57.50;;;;;;5058858;28;20188;-66
2022/05/04 12:08:43;;;;;;;1.60;1.25;;;18.00;58.00;;;;;;5057356;28;20602;-65
2022/05/04 12:11:09;;;;;;;4.85;1.77;;;17.90;58.70;;;;;;5055490;28;20040;-65
2022/05/04 12:13:40;;;;;;;4.13;1.98;;;17.80;59.80;;;;;;5057504;28;20043;-64
2022/05/04 12:16:07;;;;;;;4.05;2.42;;;17.70;61.30;;;;;;5058932;28;20040;-64
2022/05/04 12:18:35;;;;;;;2.90;1.65;;;17.60;62.90;;;;;;5058792;28;20029;-65
2022/05/04 12:21:07;;;;;;;3.10;2.30;;;17.40;63.20;;;;;;5058366;28;20086;-65
2022/05/04 12:23:35;;;;;;;5.53;2.15;;;17.20;63.90;;;;;;5058250;28;20029;-65
2022/05/04 12:26:01;;;;;;;4.13;2.13;;;17.10;63.10;;;;;;5057531;28;20037;-64
2022/05/04 12:28:27;;;;;;;3.03;2.53;;;16.90;64.30;;;;;;5056932;28;20052;-65
2022/05/04 12:33:38;;;;;;;3.53;2.72;;;16.80;66.30;;;;;;5057283;28;20059;-65
2022/05/04 12:36:07;;;;;;;4.80;2.67;;;16.80;66.70;;;;;;5058241;28;20120;-64
2022/05/04 12:38:35;;;;;;;2.67;2.40;;;16.70;66.80;;;;;;5056361;28;20041;-65
2022/05/04 12:41:02;;;;;;;2.72;2.53;;;16.70;67.30;;;;;;5058457;28;20033;-64
2022/05/04 12:43:38;;;;;;;3.40;2.58;;;16.60;68.30;;;;;;5060649;28;20037;-64
2022/05/04 12:46:08;;;;;;;3.08;2.42;;;16.60;70.00;;;;;;5056573;28;20089;-64
2022/05/04 12:48:36;;;;;;;2.92;2.60;;;16.60;70.00;;;;;;5055103;28;20037;-64
2022/05/04 12:51:02;;;;;;;2.70;2.50;;;16.60;69.60;;;;;;5060495;28;20094;-64
2022/05/04 12:53:27;;;;;;;4.03;2.55;;;16.50;70.20;;;;;;5055660;28;20028;-63
2022/05/04 12:58:38;;;;;;;3.30;2.60;;;16.50;71.50;;;;;;5061183;28;20090;-64
2022/05/04 13:01:04;;;;;;;2.50;2.28;;;16.50;71.80;;;;;;5061479;28;20037;-64
2022/05/04 13:03:31;;;;;;;4.13;2.38;;;16.50;69.30;;;;;;5060736;28;20490;-64
2022/05/04 13:05:57;;;;;;;3.50;2.50;;;16.50;69.70;;;;;;5061161;28;20043;-62
2022/05/04 13:08:23;;;;;;;3.97;2.67;;;16.50;70.90;;;;;;5076572;28;20029;-65
2022/05/04 13:10:49;;;;;;;3.25;2.55;;;16.40;71.80;;;;;;5058304;28;20131;-64
2022/05/04 13:13:18;;;;;;;2.78;2.22;;;16.40;71.90;;;;;;5060167;28;20178;-64
2022/05/04 13:15:44;;;;;;;2.22;2.03;;;16.40;71.80;;;;;;5059371;28;20040;-63
2022/05/04 13:18:10;;;;;;;2.22;2.00;;;16.30;71.80;;;;;;5060862;28;20032;-64
2022/05/04 13:20:36;;;;;;;5.03;2.70;;;16.30;72.10;;;;;;5060455;28;20421;-64
2022/05/04 13:23:02;;;;;;;2.63;2.42;;;16.30;72.60;;;;;;5058941;28;20056;-64
2022/05/04 13:25:28;;;;;;;2.42;2.22;;;16.30;73.30;;;;;;5060029;28;20413;-65